sensor_id;sensor_type;location;lat;lon;timestamp;P1;durP1;ratioP1;P2;durP2;ratioP2
19026;SDS011;9646;52.034;5.554;2023-03-23T00:02:03;4.13;;;2.65;;
19026;SDS011;9646;52.034;5.554;2023-03-23T00:04:32;5.32;;;3.03;;
19026;SDS011;9646;52.034;5.554;2023-03-23T00:06:59;6.80;;;2.88;;
19026;SDS011;9646;52.034;5.554;2023-03-23T00:09:27;4.05;;;2.45;;
19026;SDS011;9646;52.034;5.554;2023-03-23T00:11:59;6.18;;;2.88;;
19026;SDS011;9646;52.034;5.554;2023-03-23T00:14:31;9.23;;;3.03;;
19026;SDS011;9646;52.034;5.554;2023-03-23T00:17:06;5.35;;;2.97;;
19026;SDS011;9646;52.034;5.554;2023-03-23T00:19:36;8.43;;;2.88;;
19026;SDS011;9646;52.034;5.554;2023-03-23T00:22:10;4.57;;;2.45;;
19026;SDS011;9646;52.034;5.554;2023-03-23T00:24:37;6.28;;;2.95;;
19026;SDS011;9646;52.034;5.554;2023-03-23T00:27:04;6.05;;;3.05;;
19026;SDS011;9646;52.034;5.554;2023-03-23T00:29:33;4.90;;;2.47;;
19026;SDS011;9646;52.034;5.554;2023-03-23T00:32:00;4.72;;;2.72;;
19026;SDS011;9646;52.034;5.554;2023-03-23T00:34:27;2.97;;;2.20;;
19026;SDS011;9646;52.034;5.554;2023-03-23T00:36:59;5.43;;;2.83;;
19026;SDS011;9646;52.034;5.554;2023-03-23T00:39:26;4.10;;;2.80;;
19026;SDS011;9646;52.034;5.554;2023-03-23T00:41:54;4.85;;;2.53;;
19026;SDS011;9646;52.034;5.554;2023-03-23T00:44:25;6.53;;;2.80;;
19026;SDS011;9646;52.034;5.554;2023-03-23T00:46:53;6.15;;;3.17;;
19026;SDS011;9646;52.034;5.554;2023-03-23T00:49:21;6.22;;;2.85;;
19026;SDS011;9646;52.034;5.554;2023-03-23T00:51:50;3.90;;;2.35;;
19026;SDS011;9646;52.034;5.554;2023-03-23T00:54:18;5.38;;;2.85;;
19026;SDS011;9646;52.034;5.554;2023-03-23T00:56:46;5.28;;;2.35;;
19026;SDS011;9646;52.034;5.554;2023-03-23T00:59:13;4.30;;;2.67;;
19026;SDS011;9646;52.034;5.554;2023-03-23T01:01:41;3.35;;;2.28;;
19026;SDS011;9646;52.034;5.554;2023-03-23T01:04:08;5.25;;;2.90;;
19026;SDS011;9646;52.034;5.554;2023-03-23T01:06:37;5.55;;;2.63;;
19026;SDS011;9646;52.034;5.554;2023-03-23T01:09:05;4.20;;;2.45;;
19026;SDS011;9646;52.034;5.554;2023-03-23T01:11:33;4.85;;;2.33;;
19026;SDS011;9646;52.034;5.554;2023-03-23T01:14:00;4.45;;;2.47;;
19026;SDS011;9646;52.034;5.554;2023-03-23T01:16:28;5.40;;;2.65;;
19026;SDS011;9646;52.034;5.554;2023-03-23T01:18:55;2.67;;;1.90;;
19026;SDS011;9646;52.034;5.554;2023-03-23T01:21:22;3.80;;;2.10;;
19026;SDS011;9646;52.034;5.554;2023-03-23T01:23:50;5.05;;;2.20;;
19026;SDS011;9646;52.034;5.554;2023-03-23T01:26:18;4.65;;;2.60;;
19026;SDS011;9646;52.034;5.554;2023-03-23T01:28:46;5.63;;;2.80;;
19026;SDS011;9646;52.034;5.554;2023-03-23T01:31:14;2.63;;;2.25;;
19026;SDS011;9646;52.034;5.554;2023-03-23T01:33:42;5.97;;;2.60;;
19026;SDS011;9646;52.034;5.554;2023-03-23T01:36:10;6.53;;;2.88;;
19026;SDS011;9646;52.034;5.554;2023-03-23T01:38:37;5.18;;;2.85;;
19026;SDS011;9646;52.034;5.554;2023-03-23T01:41:04;7.25;;;2.80;;
19026;SDS011;9646;52.034;5.554;2023-03-23T01:43:32;3.78;;;2.28;;
19026;SDS011;9646;52.034;5.554;2023-03-23T01:46:00;4.28;;;2.60;;
19026;SDS011;9646;52.034;5.554;2023-03-23T01:48:27;3.90;;;2.50;;
19026;SDS011;9646;52.034;5.554;2023-03-23T01:50:57;5.60;;;2.63;;
19026;SDS011;9646;52.034;5.554;2023-03-23T01:53:26;4.65;;;2.60;;
19026;SDS011;9646;52.034;5.554;2023-03-23T01:55:55;4.35;;;2.78;;
19026;SDS011;9646;52.034;5.554;2023-03-23T01:58:24;4.53;;;2.58;;
19026;SDS011;9646;52.034;5.554;2023-03-23T02:00:53;5.03;;;2.70;;
19026;SDS011;9646;52.034;5.554;2023-03-23T02:03:22;5.22;;;2.50;;
19026;SDS011;9646;52.034;5.554;2023-03-23T02:05:49;3.47;;;2.50;;
19026;SDS011;9646;52.034;5.554;2023-03-23T02:08:16;4.15;;;2.40;;
19026;SDS011;9646;52.034;5.554;2023-03-23T02:10:44;4.25;;;2.95;;
19026;SDS011;9646;52.034;5.554;2023-03-23T02:13:11;6.63;;;2.78;;
19026;SDS011;9646;52.034;5.554;2023-03-23T02:15:45;4.10;;;2.58;;
19026;SDS011;9646;52.034;5.554;2023-03-23T02:18:15;4.90;;;2.90;;
19026;SDS011;9646;52.034;5.554;2023-03-23T02:21:04;4.68;;;2.90;;
19026;SDS011;9646;52.034;5.554;2023-03-23T02:23:41;5.10;;;2.95;;
19026;SDS011;9646;52.034;5.554;2023-03-23T02:26:17;3.58;;;2.60;;
19026;SDS011;9646;52.034;5.554;2023-03-23T02:28:54;6.57;;;2.67;;
19026;SDS011;9646;52.034;5.554;2023-03-23T02:31:30;4.03;;;2.90;;
19026;SDS011;9646;52.034;5.554;2023-03-23T02:34:05;4.40;;;2.70;;
19026;SDS011;9646;52.034;5.554;2023-03-23T02:36:35;3.40;;;2.47;;
19026;SDS011;9646;52.034;5.554;2023-03-23T02:39:05;3.67;;;2.20;;
19026;SDS011;9646;52.034;5.554;2023-03-23T02:41:36;4.72;;;3.10;;
19026;SDS011;9646;52.034;5.554;2023-03-23T02:44:06;2.75;;;2.50;;
19026;SDS011;9646;52.034;5.554;2023-03-23T02:46:35;4.78;;;2.60;;
19026;SDS011;9646;52.034;5.554;2023-03-23T02:49:03;4.85;;;2.85;;
19026;SDS011;9646;52.034;5.554;2023-03-23T02:51:32;5.88;;;2.53;;
19026;SDS011;9646;52.034;5.554;2023-03-23T02:54:00;3.35;;;2.60;;
19026;SDS011;9646;52.034;5.554;2023-03-23T02:56:27;4.75;;;2.63;;
19026;SDS011;9646;52.034;5.554;2023-03-23T02:58:55;3.80;;;2.80;;
19026;SDS011;9646;52.034;5.554;2023-03-23T03:04:09;4.18;;;2.65;;
19026;SDS011;9646;52.034;5.554;2023-03-23T03:06:40;4.80;;;2.80;;
19026;SDS011;9646;52.034;5.554;2023-03-23T03:09:11;4.13;;;2.97;;
19026;SDS011;9646;52.034;5.554;2023-03-23T03:11:40;4.35;;;2.70;;
19026;SDS011;9646;52.034;5.554;2023-03-23T03:14:13;4.35;;;3.10;;
19026;SDS011;9646;52.034;5.554;2023-03-23T03:16:44;5.40;;;2.92;;
19026;SDS011;9646;52.034;5.554;2023-03-23T03:19:13;4.55;;;2.60;;
19026;SDS011;9646;52.034;5.554;2023-03-23T03:21:44;5.65;;;2.92;;
19026;SDS011;9646;52.034;5.554;2023-03-23T03:24:14;6.20;;;2.70;;
19026;SDS011;9646;52.034;5.554;2023-03-23T03:26:42;3.85;;;2.42;;
19026;SDS011;9646;52.034;5.554;2023-03-23T03:29:10;5.38;;;2.90;;
19026;SDS011;9646;52.034;5.554;2023-03-23T03:31:39;3.58;;;2.13;;
19026;SDS011;9646;52.034;5.554;2023-03-23T03:34:10;5.75;;;2.50;;
19026;SDS011;9646;52.034;5.554;2023-03-23T03:36:37;5.05;;;2.13;;
19026;SDS011;9646;52.034;5.554;2023-03-23T03:39:08;6.28;;;2.63;;
19026;SDS011;9646;52.034;5.554;2023-03-23T03:41:37;6.22;;;2.53;;
19026;SDS011;9646;52.034;5.554;2023-03-23T03:44:04;5.75;;;2.38;;
19026;SDS011;9646;52.034;5.554;2023-03-23T03:46:32;6.57;;;2.10;;
19026;SDS011;9646;52.034;5.554;2023-03-23T03:48:59;5.55;;;2.45;;
19026;SDS011;9646;52.034;5.554;2023-03-23T03:51:27;4.07;;;2.45;;
19026;SDS011;9646;52.034;5.554;2023-03-23T03:53:55;4.30;;;2.40;;
19026;SDS011;9646;52.034;5.554;2023-03-23T03:56:23;3.10;;;2.40;;
19026;SDS011;9646;52.034;5.554;2023-03-23T03:58:51;3.38;;;2.30;;
19026;SDS011;9646;52.034;5.554;2023-03-23T04:01:19;4.30;;;2.47;;
19026;SDS011;9646;52.034;5.554;2023-03-23T04:03:47;6.32;;;2.42;;
19026;SDS011;9646;52.034;5.554;2023-03-23T04:06:15;4.60;;;2.05;;
19026;SDS011;9646;52.034;5.554;2023-03-23T04:08:43;5.68;;;2.83;;
19026;SDS011;9646;52.034;5.554;2023-03-23T04:11:11;4.28;;;1.90;;
19026;SDS011;9646;52.034;5.554;2023-03-23T04:13:40;4.43;;;2.42;;
19026;SDS011;9646;52.034;5.554;2023-03-23T04:16:07;4.38;;;2.22;;
19026;SDS011;9646;52.034;5.554;2023-03-23T04:18:35;4.85;;;2.15;;
19026;SDS011;9646;52.034;5.554;2023-03-23T04:21:02;4.43;;;2.60;;
19026;SDS011;9646;52.034;5.554;2023-03-23T04:23:30;6.57;;;2.30;;
19026;SDS011;9646;52.034;5.554;2023-03-23T04:26:00;5.63;;;2.25;;
19026;SDS011;9646;52.034;5.554;2023-03-23T04:28:28;3.17;;;2.38;;
19026;SDS011;9646;52.034;5.554;2023-03-23T04:31:00;6.18;;;2.33;;
19026;SDS011;9646;52.034;5.554;2023-03-23T04:33:28;3.95;;;2.25;;
19026;SDS011;9646;52.034;5.554;2023-03-23T04:35:56;3.95;;;2.03;;
19026;SDS011;9646;52.034;5.554;2023-03-23T04:38:28;3.78;;;2.08;;
19026;SDS011;9646;52.034;5.554;2023-03-23T04:40:57;6.03;;;1.88;;
19026;SDS011;9646;52.034;5.554;2023-03-23T04:43:26;4.38;;;2.08;;
19026;SDS011;9646;52.034;5.554;2023-03-23T04:45:54;5.78;;;2.10;;
19026;SDS011;9646;52.034;5.554;2023-03-23T04:48:23;5.55;;;1.77;;
19026;SDS011;9646;52.034;5.554;2023-03-23T04:50:51;6.85;;;1.80;;
19026;SDS011;9646;52.034;5.554;2023-03-23T04:53:18;4.82;;;1.90;;
19026;SDS011;9646;52.034;5.554;2023-03-23T04:55:46;4.38;;;1.95;;
19026;SDS011;9646;52.034;5.554;2023-03-23T04:58:14;5.75;;;2.00;;
19026;SDS011;9646;52.034;5.554;2023-03-23T05:00:41;5.18;;;1.80;;
19026;SDS011;9646;52.034;5.554;2023-03-23T05:03:14;5.80;;;2.20;;
19026;SDS011;9646;52.034;5.554;2023-03-23T05:05:43;5.30;;;2.15;;
19026;SDS011;9646;52.034;5.554;2023-03-23T05:08:12;6.43;;;1.80;;
19026;SDS011;9646;52.034;5.554;2023-03-23T05:10:39;8.68;;;2.05;;
19026;SDS011;9646;52.034;5.554;2023-03-23T05:13:06;5.45;;;1.98;;
19026;SDS011;9646;52.034;5.554;2023-03-23T05:15:33;7.63;;;1.85;;
19026;SDS011;9646;52.034;5.554;2023-03-23T05:18:00;9.05;;;1.75;;
19026;SDS011;9646;52.034;5.554;2023-03-23T05:20:27;7.55;;;2.33;;
19026;SDS011;9646;52.034;5.554;2023-03-23T05:22:56;7.40;;;2.15;;
19026;SDS011;9646;52.034;5.554;2023-03-23T05:25:24;6.00;;;2.05;;
19026;SDS011;9646;52.034;5.554;2023-03-23T05:27:51;5.75;;;2.15;;
19026;SDS011;9646;52.034;5.554;2023-03-23T05:30:18;8.35;;;1.88;;
19026;SDS011;9646;52.034;5.554;2023-03-23T05:32:46;9.02;;;2.20;;
19026;SDS011;9646;52.034;5.554;2023-03-23T05:35:15;6.68;;;1.92;;
19026;SDS011;9646;52.034;5.554;2023-03-23T05:37:46;9.20;;;2.25;;
19026;SDS011;9646;52.034;5.554;2023-03-23T05:40:14;5.63;;;1.85;;
19026;SDS011;9646;52.034;5.554;2023-03-23T05:42:42;8.88;;;2.17;;
19026;SDS011;9646;52.034;5.554;2023-03-23T05:45:10;7.18;;;2.05;;
19026;SDS011;9646;52.034;5.554;2023-03-23T05:47:37;6.88;;;2.42;;
19026;SDS011;9646;52.034;5.554;2023-03-23T05:50:05;7.50;;;2.05;;
19026;SDS011;9646;52.034;5.554;2023-03-23T05:52:34;6.70;;;2.17;;
19026;SDS011;9646;52.034;5.554;2023-03-23T05:55:01;7.53;;;2.13;;
19026;SDS011;9646;52.034;5.554;2023-03-23T05:57:29;6.38;;;2.20;;
19026;SDS011;9646;52.034;5.554;2023-03-23T05:59:57;6.35;;;2.08;;
19026;SDS011;9646;52.034;5.554;2023-03-23T06:02:24;5.78;;;2.20;;
19026;SDS011;9646;52.034;5.554;2023-03-23T06:04:54;7.07;;;2.33;;
19026;SDS011;9646;52.034;5.554;2023-03-23T06:07:22;7.95;;;2.20;;
19026;SDS011;9646;52.034;5.554;2023-03-23T06:09:50;6.55;;;1.75;;
19026;SDS011;9646;52.034;5.554;2023-03-23T06:12:17;5.20;;;1.67;;
19026;SDS011;9646;52.034;5.554;2023-03-23T06:14:46;9.32;;;2.30;;
19026;SDS011;9646;52.034;5.554;2023-03-23T06:17:13;5.38;;;1.70;;
19026;SDS011;9646;52.034;5.554;2023-03-23T06:19:41;5.72;;;1.70;;
19026;SDS011;9646;52.034;5.554;2023-03-23T06:22:08;7.32;;;2.00;;
19026;SDS011;9646;52.034;5.554;2023-03-23T06:24:35;9.68;;;2.17;;
19026;SDS011;9646;52.034;5.554;2023-03-23T06:27:03;4.45;;;1.58;;
19026;SDS011;9646;52.034;5.554;2023-03-23T06:29:30;6.88;;;2.30;;
19026;SDS011;9646;52.034;5.554;2023-03-23T06:31:59;9.25;;;1.50;;
19026;SDS011;9646;52.034;5.554;2023-03-23T06:34:27;7.15;;;1.90;;
19026;SDS011;9646;52.034;5.554;2023-03-23T06:36:54;8.52;;;2.08;;
19026;SDS011;9646;52.034;5.554;2023-03-23T06:39:21;6.88;;;1.90;;
19026;SDS011;9646;52.034;5.554;2023-03-23T06:41:49;6.45;;;1.83;;
19026;SDS011;9646;52.034;5.554;2023-03-23T06:44:16;6.25;;;2.05;;
19026;SDS011;9646;52.034;5.554;2023-03-23T06:46:43;6.53;;;1.90;;
19026;SDS011;9646;52.034;5.554;2023-03-23T06:49:11;7.57;;;2.50;;
19026;SDS011;9646;52.034;5.554;2023-03-23T06:51:39;10.75;;;2.13;;
19026;SDS011;9646;52.034;5.554;2023-03-23T06:54:06;6.47;;;1.83;;
19026;SDS011;9646;52.034;5.554;2023-03-23T06:56:33;8.52;;;2.22;;
19026;SDS011;9646;52.034;5.554;2023-03-23T06:59:01;10.50;;;2.40;;
19026;SDS011;9646;52.034;5.554;2023-03-23T07:01:28;9.55;;;2.30;;
19026;SDS011;9646;52.034;5.554;2023-03-23T07:03:55;6.38;;;2.42;;
19026;SDS011;9646;52.034;5.554;2023-03-23T07:06:24;5.78;;;2.22;;
19026;SDS011;9646;52.034;5.554;2023-03-23T07:08:52;8.32;;;2.50;;
19026;SDS011;9646;52.034;5.554;2023-03-23T07:11:19;7.30;;;2.35;;
19026;SDS011;9646;52.034;5.554;2023-03-23T07:13:46;8.10;;;2.05;;
19026;SDS011;9646;52.034;5.554;2023-03-23T07:16:15;7.80;;;2.30;;
19026;SDS011;9646;52.034;5.554;2023-03-23T07:18:42;7.70;;;2.35;;
19026;SDS011;9646;52.034;5.554;2023-03-23T07:21:09;6.60;;;2.10;;
19026;SDS011;9646;52.034;5.554;2023-03-23T07:23:38;8.32;;;2.13;;
19026;SDS011;9646;52.034;5.554;2023-03-23T07:26:05;8.50;;;2.60;;
19026;SDS011;9646;52.034;5.554;2023-03-23T07:28:32;6.25;;;2.13;;
19026;SDS011;9646;52.034;5.554;2023-03-23T07:30:59;8.18;;;2.20;;
19026;SDS011;9646;52.034;5.554;2023-03-23T07:33:26;11.88;;;2.47;;
19026;SDS011;9646;52.034;5.554;2023-03-23T07:35:54;7.20;;;2.17;;
19026;SDS011;9646;52.034;5.554;2023-03-23T07:38:21;6.53;;;1.90;;
19026;SDS011;9646;52.034;5.554;2023-03-23T07:40:51;5.95;;;1.85;;
19026;SDS011;9646;52.034;5.554;2023-03-23T07:43:19;9.13;;;2.15;;
19026;SDS011;9646;52.034;5.554;2023-03-23T07:45:47;5.90;;;1.38;;
19026;SDS011;9646;52.034;5.554;2023-03-23T07:48:14;6.85;;;2.03;;
19026;SDS011;9646;52.034;5.554;2023-03-23T07:50:41;6.00;;;2.17;;
19026;SDS011;9646;52.034;5.554;2023-03-23T07:53:08;5.65;;;2.05;;
19026;SDS011;9646;52.034;5.554;2023-03-23T07:55:36;6.63;;;1.90;;
19026;SDS011;9646;52.034;5.554;2023-03-23T07:58:04;6.38;;;2.25;;
19026;SDS011;9646;52.034;5.554;2023-03-23T08:00:32;6.85;;;2.15;;
19026;SDS011;9646;52.034;5.554;2023-03-23T08:03:00;6.90;;;2.05;;
19026;SDS011;9646;52.034;5.554;2023-03-23T08:05:27;5.93;;;1.73;;
19026;SDS011;9646;52.034;5.554;2023-03-23T08:07:55;8.68;;;2.55;;
19026;SDS011;9646;52.034;5.554;2023-03-23T08:10:22;8.68;;;2.20;;
19026;SDS011;9646;52.034;5.554;2023-03-23T08:12:52;8.02;;;2.38;;
19026;SDS011;9646;52.034;5.554;2023-03-23T08:15:21;5.30;;;1.73;;
19026;SDS011;9646;52.034;5.554;2023-03-23T08:17:49;5.57;;;2.15;;
19026;SDS011;9646;52.034;5.554;2023-03-23T08:20:17;5.90;;;2.05;;
19026;SDS011;9646;52.034;5.554;2023-03-23T08:22:48;6.07;;;2.00;;
19026;SDS011;9646;52.034;5.554;2023-03-23T08:25:15;6.70;;;2.10;;
19026;SDS011;9646;52.034;5.554;2023-03-23T08:27:43;9.45;;;2.53;;
19026;SDS011;9646;52.034;5.554;2023-03-23T08:30:10;7.43;;;2.35;;
19026;SDS011;9646;52.034;5.554;2023-03-23T08:32:40;10.40;;;2.50;;
19026;SDS011;9646;52.034;5.554;2023-03-23T08:35:07;8.13;;;2.58;;
19026;SDS011;9646;52.034;5.554;2023-03-23T08:37:36;3.67;;;1.80;;
19026;SDS011;9646;52.034;5.554;2023-03-23T08:40:03;6.25;;;2.25;;
19026;SDS011;9646;52.034;5.554;2023-03-23T08:42:34;6.35;;;2.40;;
19026;SDS011;9646;52.034;5.554;2023-03-23T08:45:02;7.45;;;2.20;;
19026;SDS011;9646;52.034;5.554;2023-03-23T08:47:29;5.60;;;2.05;;
19026;SDS011;9646;52.034;5.554;2023-03-23T08:49:58;4.70;;;1.98;;
19026;SDS011;9646;52.034;5.554;2023-03-23T08:52:25;7.15;;;2.10;;
19026;SDS011;9646;52.034;5.554;2023-03-23T08:54:52;8.98;;;2.20;;
19026;SDS011;9646;52.034;5.554;2023-03-23T08:57:19;5.38;;;1.75;;
19026;SDS011;9646;52.034;5.554;2023-03-23T08:59:46;5.63;;;1.95;;
19026;SDS011;9646;52.034;5.554;2023-03-23T09:02:14;4.65;;;1.67;;
19026;SDS011;9646;52.034;5.554;2023-03-23T09:04:41;5.97;;;1.70;;
19026;SDS011;9646;52.034;5.554;2023-03-23T09:07:10;6.85;;;2.10;;
19026;SDS011;9646;52.034;5.554;2023-03-23T09:09:39;3.83;;;1.55;;
19026;SDS011;9646;52.034;5.554;2023-03-23T09:12:07;5.70;;;1.90;;
19026;SDS011;9646;52.034;5.554;2023-03-23T09:14:35;6.95;;;1.80;;
19026;SDS011;9646;52.034;5.554;2023-03-23T09:17:02;4.13;;;1.92;;
19026;SDS011;9646;52.034;5.554;2023-03-23T09:19:30;6.30;;;2.10;;
19026;SDS011;9646;52.034;5.554;2023-03-23T09:21:58;7.72;;;2.13;;
19026;SDS011;9646;52.034;5.554;2023-03-23T09:24:26;6.32;;;1.83;;
19026;SDS011;9646;52.034;5.554;2023-03-23T09:26:53;7.10;;;2.10;;
19026;SDS011;9646;52.034;5.554;2023-03-23T09:29:20;6.15;;;2.08;;
19026;SDS011;9646;52.034;5.554;2023-03-23T09:31:47;7.95;;;1.98;;
19026;SDS011;9646;52.034;5.554;2023-03-23T09:34:15;8.27;;;2.70;;
19026;SDS011;9646;52.034;5.554;2023-03-23T09:36:42;6.50;;;2.72;;
19026;SDS011;9646;52.034;5.554;2023-03-23T09:39:09;8.07;;;2.42;;
19026;SDS011;9646;52.034;5.554;2023-03-23T09:41:42;7.95;;;2.13;;
19026;SDS011;9646;52.034;5.554;2023-03-23T09:44:13;7.65;;;2.42;;
19026;SDS011;9646;52.034;5.554;2023-03-23T09:46:47;10.77;;;2.97;;
19026;SDS011;9646;52.034;5.554;2023-03-23T09:49:17;10.40;;;2.10;;
19026;SDS011;9646;52.034;5.554;2023-03-23T09:51:46;7.43;;;2.35;;
19026;SDS011;9646;52.034;5.554;2023-03-23T09:54:18;8.98;;;2.38;;
19026;SDS011;9646;52.034;5.554;2023-03-23T09:56:47;7.68;;;2.33;;
19026;SDS011;9646;52.034;5.554;2023-03-23T09:59:17;9.88;;;2.75;;
19026;SDS011;9646;52.034;5.554;2023-03-23T10:01:47;8.20;;;2.55;;
19026;SDS011;9646;52.034;5.554;2023-03-23T10:04:17;9.63;;;2.50;;
19026;SDS011;9646;52.034;5.554;2023-03-23T10:06:46;6.68;;;2.00;;
19026;SDS011;9646;52.034;5.554;2023-03-23T10:09:15;10.68;;;2.53;;
19026;SDS011;9646;52.034;5.554;2023-03-23T10:11:46;8.23;;;2.15;;
19026;SDS011;9646;52.034;5.554;2023-03-23T10:14:20;8.02;;;2.00;;
19026;SDS011;9646;52.034;5.554;2023-03-23T10:16:52;8.98;;;2.47;;
19026;SDS011;9646;52.034;5.554;2023-03-23T10:19:24;8.80;;;2.47;;
19026;SDS011;9646;52.034;5.554;2023-03-23T10:21:55;8.48;;;2.30;;
19026;SDS011;9646;52.034;5.554;2023-03-23T10:24:25;9.85;;;2.17;;
19026;SDS011;9646;52.034;5.554;2023-03-23T10:26:55;7.43;;;2.70;;
19026;SDS011;9646;52.034;5.554;2023-03-23T10:29:26;11.25;;;3.20;;
19026;SDS011;9646;52.034;5.554;2023-03-23T10:31:56;10.48;;;2.65;;
19026;SDS011;9646;52.034;5.554;2023-03-23T10:34:30;11.30;;;3.40;;
19026;SDS011;9646;52.034;5.554;2023-03-23T10:37:01;7.82;;;2.33;;
19026;SDS011;9646;52.034;5.554;2023-03-23T10:39:31;8.93;;;2.50;;
19026;SDS011;9646;52.034;5.554;2023-03-23T10:41:59;11.65;;;2.78;;
19026;SDS011;9646;52.034;5.554;2023-03-23T10:44:33;10.55;;;2.50;;
19026;SDS011;9646;52.034;5.554;2023-03-23T10:47:02;7.45;;;2.53;;
19026;SDS011;9646;52.034;5.554;2023-03-23T10:49:38;7.60;;;2.17;;
19026;SDS011;9646;52.034;5.554;2023-03-23T10:52:12;8.65;;;2.40;;
19026;SDS011;9646;52.034;5.554;2023-03-23T10:54:45;4.85;;;1.80;;
19026;SDS011;9646;52.034;5.554;2023-03-23T10:57:17;9.38;;;3.30;;
19026;SDS011;9646;52.034;5.554;2023-03-23T10:59:48;11.00;;;3.00;;
19026;SDS011;9646;52.034;5.554;2023-03-23T11:02:16;9.07;;;2.95;;
19026;SDS011;9646;52.034;5.554;2023-03-23T11:04:54;8.00;;;2.90;;
19026;SDS011;9646;52.034;5.554;2023-03-23T11:07:25;9.45;;;2.92;;
19026;SDS011;9646;52.034;5.554;2023-03-23T11:09:53;11.10;;;3.03;;
19026;SDS011;9646;52.034;5.554;2023-03-23T11:12:22;10.98;;;2.67;;
19026;SDS011;9646;52.034;5.554;2023-03-23T11:14:52;9.73;;;2.90;;
19026;SDS011;9646;52.034;5.554;2023-03-23T11:17:29;11.10;;;2.90;;
19026;SDS011;9646;52.034;5.554;2023-03-23T11:19:56;13.27;;;2.80;;
19026;SDS011;9646;52.034;5.554;2023-03-23T11:22:25;9.55;;;2.70;;
19026;SDS011;9646;52.034;5.554;2023-03-23T11:24:53;10.05;;;2.28;;
19026;SDS011;9646;52.034;5.554;2023-03-23T11:27:21;9.23;;;2.20;;
19026;SDS011;9646;52.034;5.554;2023-03-23T11:29:50;8.85;;;2.58;;
19026;SDS011;9646;52.034;5.554;2023-03-23T11:32:21;9.57;;;2.35;;
19026;SDS011;9646;52.034;5.554;2023-03-23T11:34:53;11.77;;;3.05;;
19026;SDS011;9646;52.034;5.554;2023-03-23T11:37:24;14.95;;;3.15;;
19026;SDS011;9646;52.034;5.554;2023-03-23T11:39:53;8.70;;;2.50;;
19026;SDS011;9646;52.034;5.554;2023-03-23T11:42:22;9.60;;;2.40;;
19026;SDS011;9646;52.034;5.554;2023-03-23T11:44:53;9.10;;;2.38;;
19026;SDS011;9646;52.034;5.554;2023-03-23T11:47:24;9.23;;;2.50;;
19026;SDS011;9646;52.034;5.554;2023-03-23T11:49:55;9.80;;;2.78;;
19026;SDS011;9646;52.034;5.554;2023-03-23T11:52:27;11.75;;;2.80;;
19026;SDS011;9646;52.034;5.554;2023-03-23T11:54:56;12.00;;;2.90;;
19026;SDS011;9646;52.034;5.554;2023-03-23T11:57:24;12.43;;;2.75;;
19026;SDS011;9646;52.034;5.554;2023-03-23T11:59:53;9.77;;;2.53;;
19026;SDS011;9646;52.034;5.554;2023-03-23T12:02:32;7.75;;;2.25;;
19026;SDS011;9646;52.034;5.554;2023-03-23T12:05:10;9.77;;;2.47;;
19026;SDS011;9646;52.034;5.554;2023-03-23T12:07:45;8.48;;;2.60;;
19026;SDS011;9646;52.034;5.554;2023-03-23T12:10:18;11.50;;;2.30;;
19026;SDS011;9646;52.034;5.554;2023-03-23T12:12:49;10.60;;;2.15;;
19026;SDS011;9646;52.034;5.554;2023-03-23T12:15:20;11.27;;;2.45;;
19026;SDS011;9646;52.034;5.554;2023-03-23T12:17:51;6.93;;;1.90;;
19026;SDS011;9646;52.034;5.554;2023-03-23T12:20:22;9.50;;;2.75;;
19026;SDS011;9646;52.034;5.554;2023-03-23T12:22:55;8.07;;;2.40;;
19026;SDS011;9646;52.034;5.554;2023-03-23T12:25:43;9.45;;;2.25;;
19026;SDS011;9646;52.034;5.554;2023-03-23T12:28:16;7.22;;;2.33;;
19026;SDS011;9646;52.034;5.554;2023-03-23T12:30:46;7.82;;;2.33;;
19026;SDS011;9646;52.034;5.554;2023-03-23T12:33:23;7.57;;;2.40;;
19026;SDS011;9646;52.034;5.554;2023-03-23T12:35:57;11.48;;;2.25;;
19026;SDS011;9646;52.034;5.554;2023-03-23T12:38:36;6.53;;;1.83;;
19026;SDS011;9646;52.034;5.554;2023-03-23T12:41:11;8.88;;;2.03;;
19026;SDS011;9646;52.034;5.554;2023-03-23T12:43:40;6.60;;;1.90;;
19026;SDS011;9646;52.034;5.554;2023-03-23T12:46:13;9.38;;;2.10;;
19026;SDS011;9646;52.034;5.554;2023-03-23T12:48:46;6.30;;;2.17;;
19026;SDS011;9646;52.034;5.554;2023-03-23T12:51:17;6.95;;;1.75;;
19026;SDS011;9646;52.034;5.554;2023-03-23T12:53:50;7.35;;;1.90;;
19026;SDS011;9646;52.034;5.554;2023-03-23T12:56:20;6.85;;;2.10;;
19026;SDS011;9646;52.034;5.554;2023-03-23T12:58:50;7.03;;;1.95;;
19026;SDS011;9646;52.034;5.554;2023-03-23T13:01:22;10.68;;;2.28;;
19026;SDS011;9646;52.034;5.554;2023-03-23T13:03:53;8.90;;;2.22;;
19026;SDS011;9646;52.034;5.554;2023-03-23T13:06:22;8.50;;;2.38;;
19026;SDS011;9646;52.034;5.554;2023-03-23T13:08:51;7.18;;;2.47;;
19026;SDS011;9646;52.034;5.554;2023-03-23T13:11:20;8.00;;;2.08;;
19026;SDS011;9646;52.034;5.554;2023-03-23T13:13:49;5.80;;;1.83;;
19026;SDS011;9646;52.034;5.554;2023-03-23T13:16:20;10.35;;;1.80;;
19026;SDS011;9646;52.034;5.554;2023-03-23T13:18:55;7.45;;;1.80;;
19026;SDS011;9646;52.034;5.554;2023-03-23T13:21:24;8.18;;;1.83;;
19026;SDS011;9646;52.034;5.554;2023-03-23T13:23:53;5.07;;;1.50;;
19026;SDS011;9646;52.034;5.554;2023-03-23T13:26:21;9.63;;;2.42;;
19026;SDS011;9646;52.034;5.554;2023-03-23T13:28:51;5.38;;;1.58;;
19026;SDS011;9646;52.034;5.554;2023-03-23T13:31:22;7.40;;;1.73;;
19026;SDS011;9646;52.034;5.554;2023-03-23T13:33:58;4.72;;;1.80;;
19026;SDS011;9646;52.034;5.554;2023-03-23T13:36:27;5.93;;;2.08;;
19026;SDS011;9646;52.034;5.554;2023-03-23T13:38:54;6.53;;;1.73;;
19026;SDS011;9646;52.034;5.554;2023-03-23T13:41:24;7.00;;;2.20;;
19026;SDS011;9646;52.034;5.554;2023-03-23T13:43:52;7.38;;;1.63;;
19026;SDS011;9646;52.034;5.554;2023-03-23T13:46:27;3.75;;;1.73;;
19026;SDS011;9646;52.034;5.554;2023-03-23T13:49:16;5.85;;;2.03;;
19026;SDS011;9646;52.034;5.554;2023-03-23T13:51:51;4.88;;;1.58;;
19026;SDS011;9646;52.034;5.554;2023-03-23T13:54:23;3.97;;;1.27;;
19026;SDS011;9646;52.034;5.554;2023-03-23T13:56:55;4.78;;;1.60;;
19026;SDS011;9646;52.034;5.554;2023-03-23T13:59:33;5.00;;;1.75;;
19026;SDS011;9646;52.034;5.554;2023-03-23T14:04:44;7.05;;;2.10;;
19026;SDS011;9646;52.034;5.554;2023-03-23T14:07:15;7.85;;;2.13;;
19026;SDS011;9646;52.034;5.554;2023-03-23T14:09:44;8.75;;;2.20;;
19026;SDS011;9646;52.034;5.554;2023-03-23T14:12:14;5.25;;;1.98;;
19026;SDS011;9646;52.034;5.554;2023-03-23T14:14:43;7.55;;;1.85;;
19026;SDS011;9646;52.034;5.554;2023-03-23T14:17:12;6.05;;;2.00;;
19026;SDS011;9646;52.034;5.554;2023-03-23T14:19:40;5.60;;;2.00;;
19026;SDS011;9646;52.034;5.554;2023-03-23T14:22:17;8.70;;;1.88;;
19026;SDS011;9646;52.034;5.554;2023-03-23T14:24:45;8.82;;;2.05;;
19026;SDS011;9646;52.034;5.554;2023-03-23T14:27:13;4.65;;;1.95;;
19026;SDS011;9646;52.034;5.554;2023-03-23T14:29:41;6.90;;;1.90;;
19026;SDS011;9646;52.034;5.554;2023-03-23T14:32:12;6.85;;;2.22;;
19026;SDS011;9646;52.034;5.554;2023-03-23T14:34:41;8.48;;;1.98;;
19026;SDS011;9646;52.034;5.554;2023-03-23T14:37:09;6.40;;;1.70;;
19026;SDS011;9646;52.034;5.554;2023-03-23T14:39:39;8.02;;;2.20;;
19026;SDS011;9646;52.034;5.554;2023-03-23T14:42:09;6.00;;;1.80;;
19026;SDS011;9646;52.034;5.554;2023-03-23T14:44:39;4.32;;;1.52;;
19026;SDS011;9646;52.034;5.554;2023-03-23T14:47:09;7.45;;;2.28;;
19026;SDS011;9646;52.034;5.554;2023-03-23T14:49:40;5.60;;;1.95;;
19026;SDS011;9646;52.034;5.554;2023-03-23T14:52:09;6.40;;;1.85;;
19026;SDS011;9646;52.034;5.554;2023-03-23T14:54:37;7.00;;;1.77;;
19026;SDS011;9646;52.034;5.554;2023-03-23T14:57:11;7.40;;;2.10;;
19026;SDS011;9646;52.034;5.554;2023-03-23T14:59:39;5.22;;;2.25;;
19026;SDS011;9646;52.034;5.554;2023-03-23T15:02:08;5.82;;;1.55;;
19026;SDS011;9646;52.034;5.554;2023-03-23T15:04:36;7.55;;;1.98;;
19026;SDS011;9646;52.034;5.554;2023-03-23T15:07:04;7.68;;;2.08;;
19026;SDS011;9646;52.034;5.554;2023-03-23T15:09:31;5.70;;;2.03;;
19026;SDS011;9646;52.034;5.554;2023-03-23T15:11:59;8.68;;;2.47;;
19026;SDS011;9646;52.034;5.554;2023-03-23T15:14:29;10.05;;;2.30;;
19026;SDS011;9646;52.034;5.554;2023-03-23T15:16:58;8.95;;;2.03;;
19026;SDS011;9646;52.034;5.554;2023-03-23T15:19:26;7.45;;;2.15;;